Time;durP1;ratioP1;P1;durP2;ratioP2;P2;SDS_P1;SDS_P2;PMS_P1;PMS_P2;Temp;Humidity;BMP_temperature;BMP_pressure;BME280_temperature;BME280_humidity;BME280_pressure;Samples;Min_cycle;Max_cycle;Signal;HPM_P1;HPM_P2
2023/04/07 00:01:08;;;;;;;1999.90;999.90;;;7.50;99.90;;;;;;6639404;88;20633;-76
2023/04/07 00:11:09;;;;;;;1999.90;999.90;;;7.50;99.90;;;;;;6704174;88;20277;-77
2023/04/07 00:21:09;;;;;;;1999.90;999.90;;;7.40;99.90;;;;;;6658172;88;20243;-77
2023/04/07 00:31:10;;;;;;;1999.90;999.90;;;7.50;99.90;;;;;;6642836;89;20212;-77
2023/04/07 00:41:11;;;;;;;1999.90;999.90;;;7.60;99.90;;;;;;6635049;88;20213;-77
2023/04/07 00:51:12;;;;;;;1999.90;999.90;;;7.60;99.90;;;;;;6644474;88;20205;-77
2023/04/07 01:01:23;;;;;;;1999.90;999.90;;;7.50;99.90;;;;;;6653802;88;20237;-77
2023/04/07 01:11:47;;;;;;;1999.90;999.90;;;7.60;99.90;;;;;;6652061;88;20349;-77
2023/04/07 01:21:51;;;;;;;1999.90;999.90;;;7.60;99.90;;;;;;6699384;88;20223;-76
2023/04/07 01:31:54;;;;;;;1999.90;999.90;;;7.60;99.90;;;;;;6639331;88;20641;-77
2023/04/07 01:41:57;;;;;;;1999.90;999.90;;;7.80;99.90;;;;;;6634143;88;20200;-77
2023/04/07 01:51:58;;;;;;;1999.90;999.90;;;7.60;99.90;;;;;;6640204;88;20213;-77
2023/04/07 02:01:58;;;;;;;1999.90;999.90;;;7.80;99.90;;;;;;6665388;88;20833;-77
2023/04/07 02:12:00;;;;;;;1999.90;999.90;;;7.90;99.90;;;;;;6686768;88;20194;-78
2023/04/07 02:22:05;;;;;;;1999.90;999.90;;;8.00;99.90;;;;;;6662020;88;20528;-77
2023/04/07 02:32:06;;;;;;;1999.90;999.90;;;8.10;99.90;;;;;;6645249;88;20185;-77
2023/04/07 02:42:06;;;;;;;1999.90;999.90;;;8.10;99.90;;;;;;6633341;88;20307;-77
2023/04/07 02:52:07;;;;;;;1999.90;999.90;;;8.20;99.90;;;;;;6650396;88;20256;-77
2023/04/07 03:02:08;;;;;;;1999.90;999.90;;;8.20;99.90;;;;;;6643609;88;20205;-78
2023/04/07 03:12:08;;;;;;;1999.90;999.90;;;8.20;99.90;;;;;;6644586;88;20177;-79
2023/04/07 03:22:09;;;;;;;1999.90;999.90;;;8.20;99.90;;;;;;6644211;88;20201;-77
2023/04/07 03:32:09;;;;;;;1999.90;999.90;;;8.30;99.90;;;;;;6643421;88;20182;-78
2023/04/07 03:42:10;;;;;;;1999.90;999.90;;;8.20;99.90;;;;;;6653390;88;20959;-78
2023/04/07 03:52:10;;;;;;;1999.90;999.90;;;8.20;99.90;;;;;;6646703;88;20614;-78
2023/04/07 04:02:11;;;;;;;1999.90;999.90;;;8.30;99.90;;;;;;6647819;88;20222;-77
2023/04/07 04:12:11;;;;;;;1999.90;999.90;;;8.30;99.90;;;;;;6662809;88;20217;-78
2023/04/07 04:22:12;;;;;;;1999.90;999.90;;;8.20;99.90;;;;;;6649981;88;20208;-78
2023/04/07 04:32:12;;;;;;;1999.90;999.90;;;8.10;99.90;;;;;;6644944;88;20746;-77
2023/04/07 04:42:13;;;;;;;1999.90;999.90;;;8.10;99.90;;;;;;6638877;88;20197;-77
2023/04/07 04:52:13;;;;;;;1999.90;999.90;;;8.10;99.90;;;;;;6666829;88;20215;-77
2023/04/07 05:02:14;;;;;;;1999.90;999.90;;;8.00;99.90;;;;;;6627245;88;20653;-78
2023/04/07 05:12:15;;;;;;;1999.90;999.90;;;7.90;99.90;;;;;;6641449;88;20193;-77
2023/04/07 05:22:15;;;;;;;1999.90;999.90;;;7.90;99.90;;;;;;6645162;88;20222;-78
2023/04/07 05:32:18;;;;;;;1999.90;999.90;;;7.80;99.90;;;;;;6654585;88;20204;-76
2023/04/07 05:42:18;;;;;;;1999.90;999.90;;;7.80;99.90;;;;;;6655673;88;20207;-76
2023/04/07 05:52:19;;;;;;;1999.90;999.90;;;7.70;99.90;;;;;;6642466;88;20405;-76
2023/04/07 06:02:20;;;;;;;1999.90;999.90;;;7.70;99.90;;;;;;6647254;88;20629;-76
2023/04/07 06:12:20;;;;;;;1999.90;999.90;;;7.70;99.90;;;;;;6633898;88;20225;-78
2023/04/07 06:22:20;;;;;;;1999.90;999.90;;;7.60;99.90;;;;;;6646865;88;20504;-76
2023/04/07 06:32:21;;;;;;;1999.90;999.90;;;7.60;99.90;;;;;;6664742;88;20220;-77
2023/04/07 06:42:22;;;;;;;1999.90;999.90;;;7.60;99.90;;;;;;6663078;88;20986;-76
2023/04/07 06:52:22;;;;;;;1999.90;999.90;;;7.70;99.90;;;;;;6645687;88;20209;-76
2023/04/07 07:02:23;;;;;;;1999.90;999.90;;;7.70;99.90;;;;;;6638959;88;20680;-76
2023/04/07 07:12:23;;;;;;;1999.90;999.90;;;7.70;99.90;;;;;;6644408;88;20207;-77
2023/04/07 07:22:24;;;;;;;1999.90;999.90;;;7.80;99.90;;;;;;6656950;88;20300;-77
2023/04/07 07:32:25;;;;;;;1999.90;999.90;;;7.70;99.90;;;;;;6644162;88;20201;-76
2023/04/07 07:42:25;;;;;;;1999.90;999.90;;;7.80;99.90;;;;;;6638195;88;20723;-77
2023/04/07 07:52:26;;;;;;;1999.90;999.90;;;7.90;99.90;;;;;;6649720;88;20198;-77
2023/04/07 08:02:33;;;;;;;1999.90;999.90;;;7.80;99.90;;;;;;6654044;88;20550;-77
2023/04/07 08:12:34;;;;;;;1999.90;999.90;;;7.80;99.90;;;;;;6643588;88;20241;-78
2023/04/07 08:22:34;;;;;;;1999.90;999.90;;;7.80;99.90;;;;;;6682957;88;20690;-79
2023/04/07 08:32:36;;;;;;;1999.90;999.90;;;7.90;99.90;;;;;;6663338;88;20211;-79
2023/04/07 08:42:42;;;;;;;1999.90;999.90;;;7.90;99.90;;;;;;6648647;89;20196;-76
2023/04/07 08:52:54;;;;;;;1999.90;999.90;;;8.00;99.90;;;;;;6682431;88;20243;-76
2023/04/07 09:02:55;;;;;;;1999.90;999.90;;;8.10;99.90;;;;;;6727182;88;20222;-77
2023/04/07 09:12:58;;;;;;;1999.90;999.90;;;8.20;99.90;;;;;;6719451;88;20176;-76
2023/04/07 09:22:59;;;;;;;1999.90;999.90;;;8.30;99.90;;;;;;6717863;88;20736;-76
2023/04/07 09:33:00;;;;;;;1999.90;999.90;;;8.40;99.90;;;;;;6717631;88;20218;-77
2023/04/07 09:43:03;;;;;;;1999.90;999.90;;;8.50;99.90;;;;;;6717292;88;20220;-77
2023/04/07 09:53:03;;;;;;;1999.90;999.90;;;8.50;99.90;;;;;;6717733;88;20203;-77
2023/04/07 10:03:06;;;;;;;1999.90;999.90;;;8.40;99.90;;;;;;6722691;88;20262;-76
2023/04/07 10:13:06;;;;;;;1999.90;999.90;;;8.60;99.90;;;;;;6716866;88;20502;-77
2023/04/07 10:23:21;;;;;;;1999.90;999.90;;;8.70;99.90;;;;;;6689176;88;20641;-78
2023/04/07 10:33:43;;;;;;;1999.90;999.90;;;8.80;99.90;;;;;;6644739;88;20189;-78
2023/04/07 10:43:44;;;;;;;1999.90;999.90;;;8.70;99.90;;;;;;6650446;88;20198;-79
2023/04/07 10:54:16;;;;;;;1999.90;999.90;;;8.70;99.90;;;;;;6653389;88;20206;-77
2023/04/07 11:04:17;;;;;;;1999.90;999.90;;;8.70;99.90;;;;;;6635849;88;20323;-78
2023/04/07 11:14:28;;;;;;;1999.90;999.90;;;8.80;99.90;;;;;;6648115;88;20681;-78
2023/04/07 11:24:38;;;;;;;1999.90;999.90;;;8.80;99.90;;;;;;6629344;88;20654;-78
2023/04/07 11:34:39;;;;;;;1999.90;999.90;;;9.00;99.90;;;;;;6647186;88;20615;-79
2023/04/07 11:44:46;;;;;;;1999.90;999.90;;;9.30;99.90;;;;;;6656104;88;20693;-77
2023/04/07 11:54:46;;;;;;;1999.90;999.90;;;9.20;99.90;;;;;;6652138;88;20178;-78
2023/04/07 12:04:56;;;;;;;1999.90;999.90;;;9.40;99.90;;;;;;6642188;88;20181;-78
2023/04/07 12:14:56;;;;;;;1999.90;999.90;;;9.30;99.90;;;;;;6658858;88;20298;-78
2023/04/07 12:24:57;;;;;;;1999.90;999.90;;;9.30;99.90;;;;;;6648189;88;20216;-79
2023/04/07 12:34:57;;;;;;;1999.90;999.90;;;9.40;99.90;;;;;;6640761;88;20216;-78
2023/04/07 12:44:58;;;;;;;1999.90;999.90;;;9.60;99.90;;;;;;6661286;88;20185;-78
2023/04/07 12:54:58;;;;;;;1999.90;999.90;;;9.90;99.90;;;;;;6684915;88;20189;-78
2023/04/07 13:04:59;;;;;;;1999.90;999.90;;;10.00;99.90;;;;;;6649349;88;20199;-78
2023/04/07 13:15:00;;;;;;;1999.90;999.90;;;10.00;99.90;;;;;;6658202;88;20210;-79
2023/04/07 13:25:01;;;;;;;1999.90;999.90;;;9.90;99.90;;;;;;6649429;88;20246;-78
2023/04/07 13:35:02;;;;;;;1999.90;999.90;;;9.90;99.90;;;;;;6655181;88;20364;-79
2023/04/07 13:45:03;;;;;;;1999.90;999.90;;;9.90;99.90;;;;;;6659121;88;20956;-78
2023/04/07 13:55:04;;;;;;;1999.90;999.90;;;10.00;99.90;;;;;;6647759;88;20209;-76
2023/04/07 14:05:05;;;;;;;1999.90;999.90;;;10.00;99.90;;;;;;6650900;88;20205;-79
2023/04/07 14:15:06;;;;;;;1999.90;999.90;;;10.30;99.90;;;;;;6648839;88;20251;-78
2023/04/07 14:25:07;;;;;;;1999.90;999.90;;;10.60;99.90;;;;;;6701510;88;20621;-77
2023/04/07 14:35:08;;;;;;;1999.90;999.90;;;10.40;99.90;;;;;;6718434;88;20185;-77
2023/04/07 14:45:08;;;;;;;1999.90;999.90;;;10.20;99.90;;;;;;6722641;88;20196;-78
2023/04/07 14:55:10;;;;;;;1999.90;999.90;;;10.80;99.90;;;;;;6717911;88;20197;-77
2023/04/07 15:05:10;;;;;;;1999.90;999.90;;;11.10;99.90;;;;;;6712031;88;20676;-77
2023/04/07 15:15:15;;;;;;;1999.90;999.90;;;11.00;99.90;;;;;;6638229;89;20210;-77
2023/04/07 15:25:16;;;;;;;1999.90;999.90;;;10.60;99.90;;;;;;6665291;88;20205;-77
2023/04/07 15:35:16;;;;;;;1999.90;999.90;;;10.40;99.90;;;;;;6718719;88;20205;-76
2023/04/07 15:45:17;;;;;;;1999.90;999.90;;;10.30;99.90;;;;;;6719141;88;20208;-77
2023/04/07 15:55:17;;;;;;;1999.90;999.90;;;10.10;99.90;;;;;;6684386;88;20306;-76
2023/04/07 16:05:18;;;;;;;1999.90;999.90;;;10.20;99.90;;;;;;6684179;88;20511;-77
2023/04/07 16:15:19;;;;;;;1999.90;999.90;;;10.10;99.90;;;;;;6684382;88;20203;-78
2023/04/07 16:25:19;;;;;;;1999.90;999.90;;;10.10;99.90;;;;;;6630041;89;20197;-78
2023/04/07 16:35:20;;;;;;;1999.90;999.90;;;9.70;99.90;;;;;;6630162;89;20594;-78
2023/04/07 16:45:21;;;;;;;1999.90;999.90;;;9.70;99.90;;;;;;6667907;88;20793;-76
2023/04/07 16:55:21;;;;;;;1999.90;999.90;;;9.70;99.90;;;;;;6679764;88;20638;-75
2023/04/07 17:05:22;;;;;;;1999.90;999.90;;;9.60;99.90;;;;;;6723287;88;20237;-77
2023/04/07 17:15:23;;;;;;;1999.90;999.90;;;9.50;99.90;;;;;;6668599;88;20199;-76
2023/04/07 17:25:24;;;;;;;1999.90;999.90;;;9.60;99.90;;;;;;6700549;88;20197;-77
2023/04/07 17:35:24;;;;;;;1999.90;999.90;;;9.70;99.90;;;;;;6645730;88;20202;-76
2023/04/07 17:45:25;;;;;;;1999.90;999.90;;;9.50;99.90;;;;;;6685248;88;20656;-76
2023/04/07 17:55:26;;;;;;;1999.90;999.90;;;9.40;99.90;;;;;;6631473;89;20505;-76
2023/04/07 18:05:29;;;;;;;1999.90;999.90;;;9.40;99.90;;;;;;6668353;88;21133;-76
2023/04/07 18:15:30;;;;;;;1999.90;999.90;;;9.30;99.90;;;;;;6696272;88;20371;-77
2023/04/07 18:25:31;;;;;;;1999.90;999.90;;;9.40;99.90;;;;;;6660587;88;20185;-77
2023/04/07 18:35:31;;;;;;;1999.90;999.90;;;9.20;99.90;;;;;;6626072;88;20588;-78
2023/04/07 18:45:35;;;;;;;1999.90;999.90;;;9.20;99.90;;;;;;6685978;88;20248;-78
2023/04/07 18:55:36;;;;;;;1999.90;999.90;;;9.20;99.90;;;;;;6710050;88;20243;-79
2023/04/07 19:05:38;;;;;;;1999.90;999.90;;;9.10;99.90;;;;;;6658867;88;20318;-77
2023/04/07 19:15:43;;;;;;;1999.90;999.90;;;9.20;99.90;;;;;;6716664;88;20182;-77
2023/04/07 19:25:43;;;;;;;1999.90;999.90;;;9.20;99.90;;;;;;6680764;88;20220;-78
2023/04/07 19:35:44;;;;;;;1999.90;999.90;;;9.10;99.90;;;;;;6660492;88;20192;-80
2023/04/07 19:45:48;;;;;;;1999.90;999.90;;;9.20;99.90;;;;;;6640516;88;20185;-77
2023/04/07 19:55:49;;;;;;;1999.90;999.90;;;9.20;99.90;;;;;;6685312;88;20224;-78
2023/04/07 20:05:51;;;;;;;1999.90;999.90;;;9.00;99.90;;;;;;6640551;88;20200;-78
2023/04/07 20:15:52;;;;;;;1999.90;999.90;;;9.00;99.90;;;;;;6628506;77;20219;-78
2023/04/07 20:25:53;;;;;;;1999.90;999.90;;;9.00;99.90;;;;;;6661744;88;20181;-76
2023/04/07 20:35:53;;;;;;;1999.90;999.90;;;8.90;99.90;;;;;;6653331;88;20216;-77
2023/04/07 20:45:55;;;;;;;1999.90;999.90;;;9.00;99.90;;;;;;6652644;88;20205;-76
2023/04/07 20:55:57;;;;;;;1999.90;999.90;;;8.90;99.90;;;;;;6675047;88;20523;-75
2023/04/07 21:05:58;;;;;;;1999.90;999.90;;;8.90;99.90;;;;;;6671053;88;20266;-76
2023/04/07 21:16:00;;;;;;;1999.90;999.90;;;8.80;99.90;;;;;;6677314;88;20203;-76
2023/04/07 21:26:02;;;;;;;1999.90;999.90;;;8.70;99.90;;;;;;6660934;88;20650;-75
2023/04/07 21:36:02;;;;;;;1999.90;999.90;;;8.80;99.90;;;;;;6665427;88;20285;-78
2023/04/07 21:46:03;;;;;;;1999.90;999.90;;;8.70;99.90;;;;;;6664998;88;20203;-77
2023/04/07 21:56:04;;;;;;;1999.90;999.90;;;8.70;99.90;;;;;;6649870;88;20225;-76
2023/04/07 22:06:04;;;;;;;1999.90;999.90;;;8.70;99.90;;;;;;6664477;88;20181;-77
2023/04/07 22:16:05;;;;;;;1999.90;999.90;;;8.80;99.90;;;;;;6656962;88;20735;-75
2023/04/07 22:26:06;;;;;;;1999.90;999.90;;;8.70;99.90;;;;;;6638113;88;20268;-75
2023/04/07 22:36:06;;;;;;;1999.90;999.90;;;8.70;99.90;;;;;;6629933;89;20682;-76
2023/04/07 22:46:07;;;;;;;1999.90;999.90;;;8.70;99.90;;;;;;6642248;88;20560;-74
2023/04/07 22:56:07;;;;;;;1999.90;999.90;;;8.80;99.90;;;;;;6630510;88;20197;-75
2023/04/07 23:06:08;;;;;;;1999.90;999.90;;;8.70;99.90;;;;;;6650079;88;20210;-75
2023/04/07 23:16:12;;;;;;;1999.90;999.90;;;8.60;99.90;;;;;;6646503;88;20608;-74
2023/04/07 23:26:12;;;;;;;1999.90;999.90;;;8.60;99.90;;;;;;6631054;89;20318;-74
2023/04/07 23:36:13;;;;;;;1999.90;999.90;;;8.50;99.90;;;;;;6633982;89;20189;-75
2023/04/07 23:46:14;;;;;;;1999.90;999.90;;;8.50;99.90;;;;;;6637209;89;20209;-74
2023/04/07 23:56:15;;;;;;;1999.90;999.90;;;8.50;99.90;;;;;;6631844;89;20202;-74
